Coeur D'Alene - Pappy Boyington Field
KCOE : now visible

Airfield :











YOU CAN JOIN US ON...

 
LOGIN :

Register | Disclaimer

   EN    FR    IT 

 









Legend :    VFR   Marginal VFR   IFR   Intensive IFR   Very Intensive IFR
Visi :
Ceiling :
>= 8 km
>= 3000ft
5 to 8 km
1000 to 3000 ft
1500m to 5 km
500 to 1000 ft
800 to 1500m
200 to 500 ft
< 800m
< 200 ft
Symbols :   Thunderstorms  Fog  Heavy snow  Heavy precipitations  Wind > 20 kt






- Airport Elevation : 2320 ft


KCOE - Coeur D'Alene - Pappy Boyington Field

CURRENT METAR :
  • 152256Z AUTO 13004KT 10SM BKN038 OVC070 02/M02 A3032 RMK AO2 SLP309 T00171017 FZRANO

EXPIRED METARs :
  • 152237Z AUTO 12004KT 10SM FEW029 OVC042 02/M03 A3032 RMK AO2 FZRANO
  • 152213Z AUTO 00000KT 10SM BKN029 OVC090 02/M03 A3033 RMK AO2 FZRANO
  • 152156Z AUTO 03004KT 10SM SCT026 BKN032 OVC090 02/M03 A3034 RMK AO2 RAE2059 SLP314 P0000 T00171033 FZRANO
  • 152056Z AUTO 00000KT 10SM -RA FEW030 SCT075 01/M04 A3034 RMK AO2 RAB45 SLP316 P0000 60000 T00111039 56012 FZRANO

TAF KCOE
Valid from the 15 at 18:00 until the 16 at 18:00 UTC


151730Z 1518/1618 04004KT P6SM VCSH OVC040
FM152200 VRB03KT P6SM VCSH BKN030
FM160000 VRB03KT P6SM BKN028
FM160300 VRB03KT P6SM BKN013
FM161000 03004KT 5SM BR OVC004
FM161700 03005KT P6SM OVC006
KZSE FIR / North America



MET'MAP, your aeronautical weather chart ! - Copyright ORBIFLY December 2007 - Disclaimer

ORBIFLY MET'MAP TEAM :

Programming & Development : Alexandra Zaïnal
Concept & original design : Baudouin d'Aumeries
Assistance for programming : Marc-Olivier Méhu
Technical & hardware support : Manuel Goepfert

Contact : metmap@orbifly.com




SOURCES & CREDITS :

   NOAA       Earth
Advisory